sensor_id;sensor_type;location;lat;lon;timestamp;temperature;humidity
12384;DHT22;6256;63.808;20.336;2023-06-22T00:01:28;15.80;99.90
12384;DHT22;6256;63.808;20.336;2023-06-22T00:03:54;15.80;99.90
12384;DHT22;6256;63.808;20.336;2023-06-22T00:06:20;15.70;99.90
12384;DHT22;6256;63.808;20.336;2023-06-22T00:08:46;15.70;99.90
12384;DHT22;6256;63.808;20.336;2023-06-22T00:11:11;15.70;99.90
12384;DHT22;6256;63.808;20.336;2023-06-22T00:13:38;15.70;99.90
12384;DHT22;6256;63.808;20.336;2023-06-22T00:16:04;15.70;99.90
12384;DHT22;6256;63.808;20.336;2023-06-22T00:18:29;15.60;99.90
12384;DHT22;6256;63.808;20.336;2023-06-22T00:20:56;15.60;99.90
12384;DHT22;6256;63.808;20.336;2023-06-22T00:23:25;15.60;99.90
12384;DHT22;6256;63.808;20.336;2023-06-22T00:25:50;15.60;99.90
12384;DHT22;6256;63.808;20.336;2023-06-22T00:28:16;15.60;99.90
12384;DHT22;6256;63.808;20.336;2023-06-22T00:30:42;15.50;99.90
12384;DHT22;6256;63.808;20.336;2023-06-22T00:33:08;15.50;99.90
12384;DHT22;6256;63.808;20.336;2023-06-22T00:35:34;15.50;99.90
12384;DHT22;6256;63.808;20.336;2023-06-22T00:38:00;15.50;99.90
12384;DHT22;6256;63.808;20.336;2023-06-22T00:40:32;15.50;99.90
12384;DHT22;6256;63.808;20.336;2023-06-22T00:42:59;15.50;99.90
12384;DHT22;6256;63.808;20.336;2023-06-22T00:45:25;15.50;99.90
12384;DHT22;6256;63.808;20.336;2023-06-22T00:47:56;15.50;99.90
12384;DHT22;6256;63.808;20.336;2023-06-22T00:50:26;15.50;99.90
12384;DHT22;6256;63.808;20.336;2023-06-22T00:52:54;15.50;99.90
12384;DHT22;6256;63.808;20.336;2023-06-22T00:55:23;15.50;99.90
12384;DHT22;6256;63.808;20.336;2023-06-22T00:57:49;15.50;99.90
12384;DHT22;6256;63.808;20.336;2023-06-22T01:00:15;15.50;99.90
12384;DHT22;6256;63.808;20.336;2023-06-22T01:02:43;15.50;99.90
12384;DHT22;6256;63.808;20.336;2023-06-22T01:05:13;15.50;99.90
12384;DHT22;6256;63.808;20.336;2023-06-22T01:07:56;15.60;99.90
12384;DHT22;6256;63.808;20.336;2023-06-22T01:13:35;15.60;99.90
12384;DHT22;6256;63.808;20.336;2023-06-22T01:16:07;15.70;99.90
12384;DHT22;6256;63.808;20.336;2023-06-22T01:18:36;15.70;99.90
12384;DHT22;6256;63.808;20.336;2023-06-22T01:21:04;15.70;99.90
12384;DHT22;6256;63.808;20.336;2023-06-22T01:26:38;15.70;99.90
12384;DHT22;6256;63.808;20.336;2023-06-22T01:29:05;15.70;99.90
12384;DHT22;6256;63.808;20.336;2023-06-22T01:31:34;15.70;99.90
12384;DHT22;6256;63.808;20.336;2023-06-22T01:34:03;15.70;99.90
12384;DHT22;6256;63.808;20.336;2023-06-22T01:36:31;15.70;99.90
12384;DHT22;6256;63.808;20.336;2023-06-22T01:39:01;15.70;99.90
12384;DHT22;6256;63.808;20.336;2023-06-22T01:41:36;15.70;99.90
12384;DHT22;6256;63.808;20.336;2023-06-22T01:44:05;15.70;99.90
12384;DHT22;6256;63.808;20.336;2023-06-22T01:46:36;15.80;99.90
12384;DHT22;6256;63.808;20.336;2023-06-22T01:49:04;15.80;99.90
12384;DHT22;6256;63.808;20.336;2023-06-22T01:51:30;15.90;99.90
12384;DHT22;6256;63.808;20.336;2023-06-22T01:53:55;15.90;99.90
12384;DHT22;6256;63.808;20.336;2023-06-22T01:56:21;16.00;99.90
12384;DHT22;6256;63.808;20.336;2023-06-22T02:01:27;16.10;99.90
12384;DHT22;6256;63.808;20.336;2023-06-22T02:04:08;16.20;99.90
12384;DHT22;6256;63.808;20.336;2023-06-22T02:06:39;16.20;99.90
12384;DHT22;6256;63.808;20.336;2023-06-22T02:09:12;16.20;99.90
12384;DHT22;6256;63.808;20.336;2023-06-22T02:11:41;16.30;99.90
12384;DHT22;6256;63.808;20.336;2023-06-22T02:14:08;16.40;99.90
12384;DHT22;6256;63.808;20.336;2023-06-22T02:16:35;16.40;99.90
12384;DHT22;6256;63.808;20.336;2023-06-22T02:19:02;16.40;99.90
12384;DHT22;6256;63.808;20.336;2023-06-22T02:21:32;16.50;99.90
12384;DHT22;6256;63.808;20.336;2023-06-22T02:23:58;16.60;99.90
12384;DHT22;6256;63.808;20.336;2023-06-22T02:26:25;16.60;99.90
12384;DHT22;6256;63.808;20.336;2023-06-22T02:28:52;16.60;99.90
12384;DHT22;6256;63.808;20.336;2023-06-22T02:31:18;16.70;99.90
12384;DHT22;6256;63.808;20.336;2023-06-22T02:33:44;16.70;99.90
12384;DHT22;6256;63.808;20.336;2023-06-22T02:36:10;16.70;99.90
12384;DHT22;6256;63.808;20.336;2023-06-22T02:38:41;16.80;99.90
12384;DHT22;6256;63.808;20.336;2023-06-22T02:41:16;16.80;99.90
12384;DHT22;6256;63.808;20.336;2023-06-22T02:43:45;16.90;99.90
12384;DHT22;6256;63.808;20.336;2023-06-22T02:46:12;16.90;99.90
12384;DHT22;6256;63.808;20.336;2023-06-22T02:48:39;16.90;99.90
12384;DHT22;6256;63.808;20.336;2023-06-22T02:51:05;17.00;99.90
12384;DHT22;6256;63.808;20.336;2023-06-22T02:53:31;17.00;99.90
12384;DHT22;6256;63.808;20.336;2023-06-22T02:55:58;17.00;99.90
12384;DHT22;6256;63.808;20.336;2023-06-22T02:58:24;17.00;99.90
12384;DHT22;6256;63.808;20.336;2023-06-22T03:00:50;17.00;99.90
12384;DHT22;6256;63.808;20.336;2023-06-22T03:03:19;17.00;99.90
12384;DHT22;6256;63.808;20.336;2023-06-22T03:05:45;17.00;99.90
12384;DHT22;6256;63.808;20.336;2023-06-22T03:08:10;17.00;99.90
12384;DHT22;6256;63.808;20.336;2023-06-22T03:10:38;17.00;99.90
12384;DHT22;6256;63.808;20.336;2023-06-22T03:13:04;17.00;99.90
12384;DHT22;6256;63.808;20.336;2023-06-22T03:15:30;17.00;99.90
12384;DHT22;6256;63.808;20.336;2023-06-22T03:17:57;17.00;99.90
12384;DHT22;6256;63.808;20.336;2023-06-22T03:20:22;17.00;99.90
12384;DHT22;6256;63.808;20.336;2023-06-22T03:22:48;17.10;99.90
12384;DHT22;6256;63.808;20.336;2023-06-22T03:25:14;17.10;99.90
12384;DHT22;6256;63.808;20.336;2023-06-22T03:27:43;17.10;99.90
12384;DHT22;6256;63.808;20.336;2023-06-22T03:30:11;17.10;99.90
12384;DHT22;6256;63.808;20.336;2023-06-22T03:32:37;17.20;99.90
12384;DHT22;6256;63.808;20.336;2023-06-22T03:35:03;17.20;99.90
12384;DHT22;6256;63.808;20.336;2023-06-22T03:37:31;17.20;99.90
12384;DHT22;6256;63.808;20.336;2023-06-22T03:39:57;17.30;99.90
12384;DHT22;6256;63.808;20.336;2023-06-22T03:42:23;17.30;99.90
12384;DHT22;6256;63.808;20.336;2023-06-22T03:44:48;17.40;99.90
12384;DHT22;6256;63.808;20.336;2023-06-22T03:47:14;17.50;99.90
12384;DHT22;6256;63.808;20.336;2023-06-22T03:49:40;17.60;99.90
12384;DHT22;6256;63.808;20.336;2023-06-22T03:52:06;17.70;99.90
12384;DHT22;6256;63.808;20.336;2023-06-22T03:54:32;17.80;99.90
12384;DHT22;6256;63.808;20.336;2023-06-22T03:56:58;17.90;99.90
12384;DHT22;6256;63.808;20.336;2023-06-22T03:59:24;18.10;99.90
12384;DHT22;6256;63.808;20.336;2023-06-22T04:01:50;18.20;99.90
12384;DHT22;6256;63.808;20.336;2023-06-22T04:04:18;18.40;99.90
12384;DHT22;6256;63.808;20.336;2023-06-22T04:06:44;18.50;99.90
12384;DHT22;6256;63.808;20.336;2023-06-22T04:09:10;18.70;99.90
12384;DHT22;6256;63.808;20.336;2023-06-22T04:11:36;19.00;99.90
12384;DHT22;6256;63.808;20.336;2023-06-22T04:14:01;19.10;99.90
12384;DHT22;6256;63.808;20.336;2023-06-22T04:16:27;19.20;99.90
12384;DHT22;6256;63.808;20.336;2023-06-22T04:18:53;19.30;99.90
12384;DHT22;6256;63.808;20.336;2023-06-22T04:21:19;19.40;99.90
12384;DHT22;6256;63.808;20.336;2023-06-22T04:23:47;19.60;99.90
12384;DHT22;6256;63.808;20.336;2023-06-22T04:26:14;19.70;99.90
12384;DHT22;6256;63.808;20.336;2023-06-22T04:28:40;19.80;99.90
12384;DHT22;6256;63.808;20.336;2023-06-22T04:31:06;19.90;99.90
12384;DHT22;6256;63.808;20.336;2023-06-22T04:33:32;20.00;99.90
12384;DHT22;6256;63.808;20.336;2023-06-22T04:35:58;19.90;99.90
12384;DHT22;6256;63.808;20.336;2023-06-22T04:38:26;19.80;99.90
12384;DHT22;6256;63.808;20.336;2023-06-22T04:40:52;19.90;99.90
12384;DHT22;6256;63.808;20.336;2023-06-22T04:43:19;19.90;99.90
12384;DHT22;6256;63.808;20.336;2023-06-22T04:45:45;19.90;99.90
12384;DHT22;6256;63.808;20.336;2023-06-22T04:48:10;20.00;99.90
12384;DHT22;6256;63.808;20.336;2023-06-22T04:50:41;20.00;99.90
12384;DHT22;6256;63.808;20.336;2023-06-22T04:53:07;20.10;99.90
12384;DHT22;6256;63.808;20.336;2023-06-22T04:55:38;20.10;99.90
12384;DHT22;6256;63.808;20.336;2023-06-22T04:58:07;20.10;99.90
12384;DHT22;6256;63.808;20.336;2023-06-22T05:00:33;20.10;99.90
12384;DHT22;6256;63.808;20.336;2023-06-22T05:03:01;20.20;99.90
12384;DHT22;6256;63.808;20.336;2023-06-22T05:05:29;20.30;99.90
12384;DHT22;6256;63.808;20.336;2023-06-22T05:07:56;20.30;99.90
12384;DHT22;6256;63.808;20.336;2023-06-22T05:10:25;20.40;99.90
12384;DHT22;6256;63.808;20.336;2023-06-22T05:12:51;20.50;99.90
12384;DHT22;6256;63.808;20.336;2023-06-22T05:15:17;20.60;99.90
12384;DHT22;6256;63.808;20.336;2023-06-22T05:17:45;20.60;99.90
12384;DHT22;6256;63.808;20.336;2023-06-22T05:20:12;20.70;99.90
12384;DHT22;6256;63.808;20.336;2023-06-22T05:22:39;20.80;99.90
12384;DHT22;6256;63.808;20.336;2023-06-22T05:25:08;20.90;99.90
12384;DHT22;6256;63.808;20.336;2023-06-22T05:27:34;21.00;99.90
12384;DHT22;6256;63.808;20.336;2023-06-22T05:30:08;21.00;99.90
12384;DHT22;6256;63.808;20.336;2023-06-22T05:32:35;21.10;99.90
12384;DHT22;6256;63.808;20.336;2023-06-22T05:35:01;21.10;99.90
12384;DHT22;6256;63.808;20.336;2023-06-22T05:37:27;21.10;99.90
12384;DHT22;6256;63.808;20.336;2023-06-22T05:39:56;21.10;99.90
12384;DHT22;6256;63.808;20.336;2023-06-22T05:42:22;21.10;99.90
12384;DHT22;6256;63.808;20.336;2023-06-22T05:44:48;21.20;99.90
12384;DHT22;6256;63.808;20.336;2023-06-22T05:47:14;21.30;99.90
12384;DHT22;6256;63.808;20.336;2023-06-22T05:49:39;21.40;99.90
12384;DHT22;6256;63.808;20.336;2023-06-22T05:52:05;21.50;99.90
12384;DHT22;6256;63.808;20.336;2023-06-22T05:54:31;21.50;99.90
12384;DHT22;6256;63.808;20.336;2023-06-22T05:56:57;21.50;99.90
12384;DHT22;6256;63.808;20.336;2023-06-22T05:59:22;21.60;99.90
12384;DHT22;6256;63.808;20.336;2023-06-22T06:01:48;21.70;99.90
12384;DHT22;6256;63.808;20.336;2023-06-22T06:04:17;21.80;99.90
12384;DHT22;6256;63.808;20.336;2023-06-22T06:06:43;21.90;99.90
12384;DHT22;6256;63.808;20.336;2023-06-22T06:09:09;22.00;99.90
12384;DHT22;6256;63.808;20.336;2023-06-22T06:11:37;21.90;99.90
12384;DHT22;6256;63.808;20.336;2023-06-22T06:14:02;22.00;99.90
12384;DHT22;6256;63.808;20.336;2023-06-22T06:16:32;21.90;99.90
12384;DHT22;6256;63.808;20.336;2023-06-22T06:18:57;22.00;99.90
12384;DHT22;6256;63.808;20.336;2023-06-22T06:21:24;21.90;99.90
12384;DHT22;6256;63.808;20.336;2023-06-22T06:23:49;22.00;99.90
12384;DHT22;6256;63.808;20.336;2023-06-22T06:26:15;22.20;99.90
12384;DHT22;6256;63.808;20.336;2023-06-22T06:28:53;22.40;99.90
12384;DHT22;6256;63.808;20.336;2023-06-22T06:31:20;22.50;99.90
12384;DHT22;6256;63.808;20.336;2023-06-22T06:33:46;22.70;99.90
12384;DHT22;6256;63.808;20.336;2023-06-22T06:36:12;22.60;99.90
12384;DHT22;6256;63.808;20.336;2023-06-22T06:38:37;22.70;99.90
12384;DHT22;6256;63.808;20.336;2023-06-22T06:41:03;22.80;99.90
12384;DHT22;6256;63.808;20.336;2023-06-22T06:43:29;23.00;99.90
12384;DHT22;6256;63.808;20.336;2023-06-22T06:45:54;23.10;99.90
12384;DHT22;6256;63.808;20.336;2023-06-22T06:48:20;22.90;99.90
12384;DHT22;6256;63.808;20.336;2023-06-22T06:50:46;22.60;99.90
12384;DHT22;6256;63.808;20.336;2023-06-22T06:53:12;22.40;99.90
12384;DHT22;6256;63.808;20.336;2023-06-22T06:55:37;22.40;99.90
12384;DHT22;6256;63.808;20.336;2023-06-22T06:58:03;22.60;99.90
12384;DHT22;6256;63.808;20.336;2023-06-22T07:00:30;22.70;99.90
12384;DHT22;6256;63.808;20.336;2023-06-22T07:02:55;22.80;99.90
12384;DHT22;6256;63.808;20.336;2023-06-22T07:05:21;22.90;99.90
12384;DHT22;6256;63.808;20.336;2023-06-22T07:07:47;23.00;99.90
12384;DHT22;6256;63.808;20.336;2023-06-22T07:10:13;23.00;99.90
12384;DHT22;6256;63.808;20.336;2023-06-22T07:12:39;23.00;99.90
12384;DHT22;6256;63.808;20.336;2023-06-22T07:15:08;23.00;99.90
12384;DHT22;6256;63.808;20.336;2023-06-22T07:17:35;23.00;99.90
12384;DHT22;6256;63.808;20.336;2023-06-22T07:20:02;23.00;99.90
12384;DHT22;6256;63.808;20.336;2023-06-22T07:22:33;23.10;99.90
12384;DHT22;6256;63.808;20.336;2023-06-22T07:24:58;23.30;99.90
12384;DHT22;6256;63.808;20.336;2023-06-22T07:27:24;23.20;99.90
12384;DHT22;6256;63.808;20.336;2023-06-22T07:29:50;23.20;99.90
12384;DHT22;6256;63.808;20.336;2023-06-22T07:32:16;23.20;99.90
12384;DHT22;6256;63.808;20.336;2023-06-22T07:34:42;23.50;99.90
12384;DHT22;6256;63.808;20.336;2023-06-22T07:37:08;23.40;99.90
12384;DHT22;6256;63.808;20.336;2023-06-22T07:39:33;23.40;99.90
12384;DHT22;6256;63.808;20.336;2023-06-22T07:42:00;23.50;99.90
12384;DHT22;6256;63.808;20.336;2023-06-22T07:44:25;23.30;99.90
12384;DHT22;6256;63.808;20.336;2023-06-22T07:46:51;23.40;99.90
12384;DHT22;6256;63.808;20.336;2023-06-22T07:49:17;23.50;99.90
12384;DHT22;6256;63.808;20.336;2023-06-22T07:51:43;23.60;99.90
12384;DHT22;6256;63.808;20.336;2023-06-22T07:54:09;23.90;99.90
12384;DHT22;6256;63.808;20.336;2023-06-22T07:56:36;24.00;99.90
12384;DHT22;6256;63.808;20.336;2023-06-22T07:59:02;24.00;99.90
12384;DHT22;6256;63.808;20.336;2023-06-22T08:01:29;24.00;99.90
12384;DHT22;6256;63.808;20.336;2023-06-22T08:03:55;24.20;99.90
12384;DHT22;6256;63.808;20.336;2023-06-22T08:06:20;24.40;99.90
12384;DHT22;6256;63.808;20.336;2023-06-22T08:08:46;24.60;99.90
12384;DHT22;6256;63.808;20.336;2023-06-22T08:11:14;24.70;99.90
12384;DHT22;6256;63.808;20.336;2023-06-22T08:13:39;24.70;99.90
12384;DHT22;6256;63.808;20.336;2023-06-22T08:16:05;24.70;99.90
12384;DHT22;6256;63.808;20.336;2023-06-22T08:18:32;24.70;99.90
12384;DHT22;6256;63.808;20.336;2023-06-22T08:21:01;24.50;99.90
12384;DHT22;6256;63.808;20.336;2023-06-22T08:23:27;24.40;99.90
12384;DHT22;6256;63.808;20.336;2023-06-22T08:25:53;24.00;99.90
12384;DHT22;6256;63.808;20.336;2023-06-22T08:28:18;23.90;99.90
12384;DHT22;6256;63.808;20.336;2023-06-22T08:30:44;23.80;99.90
12384;DHT22;6256;63.808;20.336;2023-06-22T08:33:10;23.50;99.90
12384;DHT22;6256;63.808;20.336;2023-06-22T08:35:36;23.20;99.90
12384;DHT22;6256;63.808;20.336;2023-06-22T08:38:01;23.30;99.90
12384;DHT22;6256;63.808;20.336;2023-06-22T08:40:27;23.40;99.90
12384;DHT22;6256;63.808;20.336;2023-06-22T08:42:54;23.20;99.90
12384;DHT22;6256;63.808;20.336;2023-06-22T08:45:20;23.20;99.90
12384;DHT22;6256;63.808;20.336;2023-06-22T08:47:46;23.10;99.90
12384;DHT22;6256;63.808;20.336;2023-06-22T08:50:12;23.00;99.90
12384;DHT22;6256;63.808;20.336;2023-06-22T08:52:39;22.90;99.90
12384;DHT22;6256;63.808;20.336;2023-06-22T08:55:07;23.00;99.90
12384;DHT22;6256;63.808;20.336;2023-06-22T08:57:33;23.00;99.90
12384;DHT22;6256;63.808;20.336;2023-06-22T08:59:59;23.00;99.90
12384;DHT22;6256;63.808;20.336;2023-06-22T09:02:26;23.00;99.90
12384;DHT22;6256;63.808;20.336;2023-06-22T09:04:52;22.70;99.90
12384;DHT22;6256;63.808;20.336;2023-06-22T09:07:24;22.60;99.90
12384;DHT22;6256;63.808;20.336;2023-06-22T09:09:51;22.40;99.90
12384;DHT22;6256;63.808;20.336;2023-06-22T09:12:18;22.20;99.90
12384;DHT22;6256;63.808;20.336;2023-06-22T09:14:46;22.10;99.90
12384;DHT22;6256;63.808;20.336;2023-06-22T09:17:13;22.10;99.90
12384;DHT22;6256;63.808;20.336;2023-06-22T09:19:39;22.00;99.90
12384;DHT22;6256;63.808;20.336;2023-06-22T09:22:05;22.20;99.90
12384;DHT22;6256;63.808;20.336;2023-06-22T09:24:32;22.50;99.90
12384;DHT22;6256;63.808;20.336;2023-06-22T09:27:00;22.90;99.90
12384;DHT22;6256;63.808;20.336;2023-06-22T09:29:26;23.00;99.90
12384;DHT22;6256;63.808;20.336;2023-06-22T09:31:52;23.00;99.90
12384;DHT22;6256;63.808;20.336;2023-06-22T09:34:21;22.80;99.90
12384;DHT22;6256;63.808;20.336;2023-06-22T09:36:47;22.70;99.90
12384;DHT22;6256;63.808;20.336;2023-06-22T09:39:13;22.60;99.90
12384;DHT22;6256;63.808;20.336;2023-06-22T09:41:38;22.40;99.90
12384;DHT22;6256;63.808;20.336;2023-06-22T09:44:07;22.40;99.90
12384;DHT22;6256;63.808;20.336;2023-06-22T09:46:36;22.30;99.90
12384;DHT22;6256;63.808;20.336;2023-06-22T09:49:01;22.10;99.90
12384;DHT22;6256;63.808;20.336;2023-06-22T09:51:27;22.00;99.90
12384;DHT22;6256;63.808;20.336;2023-06-22T09:53:53;22.20;99.90
12384;DHT22;6256;63.808;20.336;2023-06-22T09:56:21;22.30;99.90
12384;DHT22;6256;63.808;20.336;2023-06-22T09:58:48;22.50;99.90
12384;DHT22;6256;63.808;20.336;2023-06-22T10:01:15;22.80;99.90
12384;DHT22;6256;63.808;20.336;2023-06-22T10:03:41;22.90;99.90
12384;DHT22;6256;63.808;20.336;2023-06-22T10:06:07;23.10;99.90
12384;DHT22;6256;63.808;20.336;2023-06-22T10:08:34;23.20;99.90
12384;DHT22;6256;63.808;20.336;2023-06-22T10:11:00;23.40;99.90
12384;DHT22;6256;63.808;20.336;2023-06-22T10:13:26;23.50;99.90
12384;DHT22;6256;63.808;20.336;2023-06-22T10:15:52;23.60;99.90
12384;DHT22;6256;63.808;20.336;2023-06-22T10:18:18;23.90;99.90
12384;DHT22;6256;63.808;20.336;2023-06-22T10:20:49;23.80;99.90
12384;DHT22;6256;63.808;20.336;2023-06-22T10:23:18;23.80;99.90
12384;DHT22;6256;63.808;20.336;2023-06-22T10:25:44;23.80;99.90
12384;DHT22;6256;63.808;20.336;2023-06-22T10:28:10;23.70;99.90
12384;DHT22;6256;63.808;20.336;2023-06-22T10:30:36;23.60;99.90
12384;DHT22;6256;63.808;20.336;2023-06-22T10:33:01;23.30;99.90
12384;DHT22;6256;63.808;20.336;2023-06-22T10:35:27;22.80;99.90
12384;DHT22;6256;63.808;20.336;2023-06-22T10:37:53;23.00;99.90
12384;DHT22;6256;63.808;20.336;2023-06-22T10:40:20;23.10;99.90
12384;DHT22;6256;63.808;20.336;2023-06-22T10:42:46;23.30;99.90
12384;DHT22;6256;63.808;20.336;2023-06-22T10:45:11;22.80;99.90
12384;DHT22;6256;63.808;20.336;2023-06-22T10:47:37;22.50;99.90
12384;DHT22;6256;63.808;20.336;2023-06-22T10:50:04;22.00;99.90
12384;DHT22;6256;63.808;20.336;2023-06-22T10:52:30;21.80;99.90
12384;DHT22;6256;63.808;20.336;2023-06-22T10:54:55;22.30;99.90
12384;DHT22;6256;63.808;20.336;2023-06-22T10:57:21;22.60;99.90
12384;DHT22;6256;63.808;20.336;2023-06-22T10:59:47;22.40;99.90
12384;DHT22;6256;63.808;20.336;2023-06-22T11:02:13;22.40;99.90
12384;DHT22;6256;63.808;20.336;2023-06-22T11:04:39;22.40;99.90
12384;DHT22;6256;63.808;20.336;2023-06-22T11:07:04;22.50;99.90
12384;DHT22;6256;63.808;20.336;2023-06-22T11:09:30;22.50;99.90
12384;DHT22;6256;63.808;20.336;2023-06-22T11:11:57;22.50;99.90
12384;DHT22;6256;63.808;20.336;2023-06-22T11:14:24;22.30;99.90
12384;DHT22;6256;63.808;20.336;2023-06-22T11:16:50;22.10;99.90
12384;DHT22;6256;63.808;20.336;2023-06-22T11:19:16;21.90;99.90
12384;DHT22;6256;63.808;20.336;2023-06-22T11:21:41;21.80;99.90
12384;DHT22;6256;63.808;20.336;2023-06-22T11:24:07;21.30;99.90
12384;DHT22;6256;63.808;20.336;2023-06-22T11:26:33;21.10;99.90
12384;DHT22;6256;63.808;20.336;2023-06-22T11:28:59;20.90;99.90
12384;DHT22;6256;63.808;20.336;2023-06-22T11:31:25;20.80;99.90
12384;DHT22;6256;63.808;20.336;2023-06-22T11:33:50;20.70;99.90
12384;DHT22;6256;63.808;20.336;2023-06-22T11:36:16;20.50;99.90
12384;DHT22;6256;63.808;20.336;2023-06-22T11:38:43;20.50;99.90
12384;DHT22;6256;63.808;20.336;2023-06-22T11:41:09;20.40;99.90
12384;DHT22;6256;63.808;20.336;2023-06-22T11:43:35;20.40;99.90
12384;DHT22;6256;63.808;20.336;2023-06-22T11:46:02;20.40;99.90
12384;DHT22;6256;63.808;20.336;2023-06-22T11:48:31;20.40;99.90
12384;DHT22;6256;63.808;20.336;2023-06-22T11:50:57;20.30;99.90
12384;DHT22;6256;63.808;20.336;2023-06-22T11:53:25;20.20;99.90
12384;DHT22;6256;63.808;20.336;2023-06-22T11:55:51;20.10;99.90
12384;DHT22;6256;63.808;20.336;2023-06-22T11:58:19;20.10;99.90
12384;DHT22;6256;63.808;20.336;2023-06-22T12:00:45;20.00;99.90
12384;DHT22;6256;63.808;20.336;2023-06-22T12:03:10;19.90;99.90
12384;DHT22;6256;63.808;20.336;2023-06-22T12:05:37;19.80;99.90
12384;DHT22;6256;63.808;20.336;2023-06-22T12:08:03;19.60;99.90
12384;DHT22;6256;63.808;20.336;2023-06-22T12:10:29;19.60;99.90
12384;DHT22;6256;63.808;20.336;2023-06-22T12:12:55;19.50;99.90
12384;DHT22;6256;63.808;20.336;2023-06-22T12:15:23;19.60;99.90
12384;DHT22;6256;63.808;20.336;2023-06-22T12:17:48;19.60;99.90
12384;DHT22;6256;63.808;20.336;2023-06-22T12:20:14;19.70;99.90
12384;DHT22;6256;63.808;20.336;2023-06-22T12:22:41;19.80;99.90
12384;DHT22;6256;63.808;20.336;2023-06-22T12:25:07;19.80;99.90
12384;DHT22;6256;63.808;20.336;2023-06-22T12:27:34;19.90;99.90
12384;DHT22;6256;63.808;20.336;2023-06-22T12:30:00;20.00;99.90
12384;DHT22;6256;63.808;20.336;2023-06-22T12:32:25;20.10;99.90
12384;DHT22;6256;63.808;20.336;2023-06-22T12:34:51;20.10;99.90
12384;DHT22;6256;63.808;20.336;2023-06-22T12:37:17;20.30;99.90
12384;DHT22;6256;63.808;20.336;2023-06-22T12:39:43;20.40;99.90
12384;DHT22;6256;63.808;20.336;2023-06-22T12:42:09;20.30;99.90
12384;DHT22;6256;63.808;20.336;2023-06-22T12:44:38;20.30;99.90
12384;DHT22;6256;63.808;20.336;2023-06-22T12:47:04;20.20;99.90
12384;DHT22;6256;63.808;20.336;2023-06-22T12:49:30;20.10;99.90
12384;DHT22;6256;63.808;20.336;2023-06-22T12:51:55;19.90;99.90
12384;DHT22;6256;63.808;20.336;2023-06-22T12:54:21;20.00;99.90
12384;DHT22;6256;63.808;20.336;2023-06-22T12:56:47;20.00;99.90
12384;DHT22;6256;63.808;20.336;2023-06-22T12:59:12;20.30;99.90
12384;DHT22;6256;63.808;20.336;2023-06-22T13:01:42;20.40;99.90
12384;DHT22;6256;63.808;20.336;2023-06-22T13:04:09;20.60;99.90
12384;DHT22;6256;63.808;20.336;2023-06-22T13:06:36;20.90;99.90
12384;DHT22;6256;63.808;20.336;2023-06-22T13:09:02;21.20;99.90
12384;DHT22;6256;63.808;20.336;2023-06-22T13:11:30;21.20;99.90
12384;DHT22;6256;63.808;20.336;2023-06-22T13:13:56;21.20;99.90
12384;DHT22;6256;63.808;20.336;2023-06-22T13:16:21;21.20;99.90
12384;DHT22;6256;63.808;20.336;2023-06-22T13:18:47;21.00;99.90
12384;DHT22;6256;63.808;20.336;2023-06-22T13:21:13;20.80;99.90
12384;DHT22;6256;63.808;20.336;2023-06-22T13:23:39;20.70;99.90
12384;DHT22;6256;63.808;20.336;2023-06-22T13:26:05;20.50;99.90
12384;DHT22;6256;63.808;20.336;2023-06-22T13:28:31;20.40;99.90
12384;DHT22;6256;63.808;20.336;2023-06-22T13:30:57;20.40;99.90
12384;DHT22;6256;63.808;20.336;2023-06-22T13:33:23;20.40;99.90
12384;DHT22;6256;63.808;20.336;2023-06-22T13:35:49;20.20;99.90
12384;DHT22;6256;63.808;20.336;2023-06-22T13:38:15;20.00;99.90
12384;DHT22;6256;63.808;20.336;2023-06-22T13:40:40;19.90;99.90
12384;DHT22;6256;63.808;20.336;2023-06-22T13:43:06;19.90;99.90
12384;DHT22;6256;63.808;20.336;2023-06-22T13:45:32;19.90;99.90
12384;DHT22;6256;63.808;20.336;2023-06-22T13:47:58;19.90;99.90
12384;DHT22;6256;63.808;20.336;2023-06-22T13:50:24;19.80;99.90
12384;DHT22;6256;63.808;20.336;2023-06-22T13:52:50;19.80;99.90
12384;DHT22;6256;63.808;20.336;2023-06-22T13:55:15;19.80;99.90
12384;DHT22;6256;63.808;20.336;2023-06-22T13:57:43;19.80;99.90
12384;DHT22;6256;63.808;20.336;2023-06-22T14:00:09;19.80;99.90
12384;DHT22;6256;63.808;20.336;2023-06-22T14:02:35;19.80;99.90
12384;DHT22;6256;63.808;20.336;2023-06-22T14:05:01;19.80;99.90
12384;DHT22;6256;63.808;20.336;2023-06-22T14:07:28;19.70;99.90
12384;DHT22;6256;63.808;20.336;2023-06-22T14:09:54;19.60;99.90
12384;DHT22;6256;63.808;20.336;2023-06-22T14:12:19;19.50;99.90
12384;DHT22;6256;63.808;20.336;2023-06-22T14:14:45;19.50;99.90
12384;DHT22;6256;63.808;20.336;2023-06-22T14:17:11;19.50;99.90
12384;DHT22;6256;63.808;20.336;2023-06-22T14:19:36;19.50;99.90
12384;DHT22;6256;63.808;20.336;2023-06-22T14:22:03;19.40;99.90
12384;DHT22;6256;63.808;20.336;2023-06-22T14:24:29;19.30;99.90
12384;DHT22;6256;63.808;20.336;2023-06-22T14:26:55;19.30;99.90
12384;DHT22;6256;63.808;20.336;2023-06-22T14:29:21;19.30;99.90
12384;DHT22;6256;63.808;20.336;2023-06-22T14:31:48;19.30;99.90
12384;DHT22;6256;63.808;20.336;2023-06-22T14:34:14;19.20;99.90
12384;DHT22;6256;63.808;20.336;2023-06-22T14:36:41;19.30;99.90
12384;DHT22;6256;63.808;20.336;2023-06-22T14:39:06;19.20;99.90
12384;DHT22;6256;63.808;20.336;2023-06-22T14:41:32;19.20;99.90
12384;DHT22;6256;63.808;20.336;2023-06-22T14:43:58;19.10;99.90
12384;DHT22;6256;63.808;20.336;2023-06-22T14:46:24;19.10;99.90
12384;DHT22;6256;63.808;20.336;2023-06-22T14:48:50;19.00;99.90
12384;DHT22;6256;63.808;20.336;2023-06-22T14:51:16;19.00;99.90
12384;DHT22;6256;63.808;20.336;2023-06-22T14:53:43;18.80;99.90
12384;DHT22;6256;63.808;20.336;2023-06-22T14:56:08;18.80;99.90
12384;DHT22;6256;63.808;20.336;2023-06-22T14:58:34;18.70;99.90
12384;DHT22;6256;63.808;20.336;2023-06-22T15:01:04;18.70;99.90
12384;DHT22;6256;63.808;20.336;2023-06-22T15:03:34;18.60;99.90
12384;DHT22;6256;63.808;20.336;2023-06-22T15:06:01;18.50;99.90
12384;DHT22;6256;63.808;20.336;2023-06-22T15:08:27;18.50;99.90
12384;DHT22;6256;63.808;20.336;2023-06-22T15:10:53;18.50;99.90
12384;DHT22;6256;63.808;20.336;2023-06-22T15:13:19;18.40;99.90
12384;DHT22;6256;63.808;20.336;2023-06-22T15:15:46;18.40;99.90
12384;DHT22;6256;63.808;20.336;2023-06-22T15:18:13;18.40;99.90
12384;DHT22;6256;63.808;20.336;2023-06-22T15:20:40;18.40;99.90
12384;DHT22;6256;63.808;20.336;2023-06-22T15:23:06;18.20;99.90
12384;DHT22;6256;63.808;20.336;2023-06-22T15:25:32;18.20;99.90
12384;DHT22;6256;63.808;20.336;2023-06-22T15:28:00;18.10;99.90
12384;DHT22;6256;63.808;20.336;2023-06-22T15:30:26;18.20;99.90
12384;DHT22;6256;63.808;20.336;2023-06-22T15:32:52;18.10;99.90
12384;DHT22;6256;63.808;20.336;2023-06-22T15:35:17;18.00;99.90